BAW3ET EGLL-EHAM
Flight info
| Callsign | BAW3ET |
|---|---|
| Flight time | 0h 40m |
| Altitude | 23000 |
| Route | BPK Q295 BRAIN M197 REDFA |
| Aircraft | A320/M-SDE3FGHIRWY/LB1 |
Departure
| Time | 2026-05-05 18:09 |
|---|---|
| Airport | London Heathrow Airport (EGLL) |
Arrival
| Time | 2026-05-05 18:49 |
|---|---|
| Airport | Amsterdam Airport Schiphol (EHAM) |
| Time | Latitude | Longitude | Altitude | Speed | Heading |
|---|---|---|---|---|---|
| 2026-05-05 17:48 | 51.47098 | -0.48556 | 98 ft | 0 kts | 266° |
| 2026-05-05 17:48 | 51.47118 | -0.48570 | 98 ft | 0 kts | 266° |
| 2026-05-05 17:49 | 51.47138 | -0.48585 | 98 ft | 0 kts | 266° |
| 2026-05-05 18:03 | 51.47138 | -0.48573 | 98 ft | 2 kts | 265° |
| 2026-05-05 18:04 | 51.47141 | -0.48546 | 97 ft | 3 kts | 250° |
| 2026-05-05 18:04 | 51.47151 | -0.48518 | 98 ft | 3 kts | 231° |
| 2026-05-05 18:04 | 51.47166 | -0.48496 | 98 ft | 3 kts | 212° |
| 2026-05-05 18:04 | 51.47185 | -0.48482 | 98 ft | 3 kts | 198° |
| 2026-05-05 18:05 | 51.47205 | -0.48475 | 98 ft | 3 kts | 187° |
| 2026-05-05 18:05 | 51.47225 | -0.48473 | 98 ft | 3 kts | 178° |
| 2026-05-05 18:05 | 51.47227 | -0.48473 | 98 ft | 0 kts | 177° |
| 2026-05-05 18:06 | 51.47215 | -0.48473 | 98 ft | 6 kts | 178° |
| 2026-05-05 18:06 | 51.47197 | -0.48471 | 98 ft | 9 kts | 178° |
| 2026-05-05 18:06 | 51.47010 | -0.48459 | 98 ft | 19 kts | 178° |
| 2026-05-05 18:06 | 51.46878 | -0.48451 | 98 ft | 19 kts | 178° |
| 2026-05-05 18:07 | 51.46752 | -0.48443 | 98 ft | 17 kts | 178° |
| 2026-05-05 18:07 | 51.46655 | -0.48435 | 98 ft | 7 kts | 177° |
| 2026-05-05 18:07 | 51.46612 | -0.48432 | 98 ft | 6 kts | 177° |
| 2026-05-05 18:07 | 51.46555 | -0.48431 | 98 ft | 12 kts | 184° |
| 2026-05-05 18:08 | 51.46475 | -0.48424 | 98 ft | 10 kts | 109° |
| 2026-05-05 18:08 | 51.46477 | -0.48332 | 98 ft | 2 kts | 89° |
| 2026-05-05 18:08 | 51.46478 | -0.48165 | 98 ft | 41 kts | 89° |
| 2026-05-05 18:08 | 51.46480 | -0.47356 | 98 ft | 103 kts | 90° |
| 2026-05-05 18:09 | 51.46487 | -0.45900 | 98 ft | 154 kts | 89° |
| 2026-05-05 18:09 | 51.46489 | -0.44107 | 531 ft | 163 kts | 90° |
| 2026-05-05 18:09 | 51.46505 | -0.42228 | 1167 ft | 173 kts | 81° |
| 2026-05-05 18:09 | 51.46965 | -0.40450 | 1842 ft | 179 kts | 51° |
| 2026-05-05 18:10 | 51.47859 | -0.39025 | 2597 ft | 185 kts | 43° |
| 2026-05-05 18:10 | 51.48781 | -0.37467 | 3249 ft | 196 kts | 44° |
| 2026-05-05 18:10 | 51.49712 | -0.35801 | 4061 ft | 206 kts | 51° |
| 2026-05-05 18:10 | 51.50396 | -0.33720 | 4911 ft | 215 kts | 60° |
| 2026-05-05 18:11 | 51.51086 | -0.31528 | 5779 ft | 223 kts | 61° |
| 2026-05-05 18:11 | 51.51787 | -0.29234 | 6574 ft | 234 kts | 62° |
| 2026-05-05 18:11 | 51.52518 | -0.26807 | 7349 ft | 249 kts | 62° |
| 2026-05-05 18:11 | 51.53033 | -0.25078 | 7935 ft | 258 kts | 63° |
| 2026-05-05 18:12 | 51.54088 | -0.21559 | 9188 ft | 268 kts | 59° |
| 2026-05-05 18:12 | 51.55315 | -0.19280 | 10108 ft | 274 kts | 36° |
| 2026-05-05 18:12 | 51.57098 | -0.17980 | 10774 ft | 292 kts | 13° |
| 2026-05-05 18:12 | 51.59132 | -0.17245 | 11437 ft | 308 kts | 13° |
| 2026-05-05 18:13 | 51.60575 | -0.16740 | 11845 ft | 320 kts | 12° |
| 2026-05-05 18:13 | 51.62812 | -0.15991 | 12401 ft | 337 kts | 11° |
| 2026-05-05 18:13 | 51.65144 | -0.15219 | 12935 ft | 353 kts | 13° |
| 2026-05-05 18:13 | 51.67564 | -0.14145 | 13445 ft | 368 kts | 15° |
| 2026-05-05 18:14 | 51.69999 | -0.12603 | 13893 ft | 385 kts | 27° |
| 2026-05-05 18:14 | 51.72218 | -0.10063 | 14397 ft | 399 kts | 42° |
| 2026-05-05 18:14 | 51.74018 | -0.06585 | 14788 ft | 408 kts | 57° |
| 2026-05-05 18:14 | 51.75207 | -0.02447 | 14901 ft | 410 kts | 72° |
| 2026-05-05 18:15 | 51.75771 | 0.02093 | 14937 ft | 411 kts | 80° |
| 2026-05-05 18:15 | 51.76214 | 0.06671 | 14945 ft | 413 kts | 81° |
| 2026-05-05 18:15 | 51.76649 | 0.11309 | 14950 ft | 413 kts | 81° |
| 2026-05-05 18:15 | 51.77061 | 0.15850 | 14952 ft | 413 kts | 82° |
| 2026-05-05 18:16 | 51.77466 | 0.20452 | 14956 ft | 412 kts | 82° |
| 2026-05-05 18:16 | 51.77858 | 0.25041 | 14957 ft | 412 kts | 82° |
| 2026-05-05 18:16 | 51.78244 | 0.29618 | 14958 ft | 412 kts | 82° |
| 2026-05-05 18:16 | 51.78630 | 0.34230 | 14957 ft | 412 kts | 82° |
| 2026-05-05 18:17 | 51.79010 | 0.38810 | 14956 ft | 412 kts | 82° |
| 2026-05-05 18:17 | 51.79387 | 0.43398 | 14955 ft | 412 kts | 82° |
| 2026-05-05 18:17 | 51.79762 | 0.47988 | 14953 ft | 411 kts | 82° |
| 2026-05-05 18:17 | 51.80127 | 0.52498 | 14950 ft | 411 kts | 82° |
| 2026-05-05 18:18 | 51.80497 | 0.57094 | 14948 ft | 411 kts | 82° |
| 2026-05-05 18:18 | 51.80864 | 0.61673 | 14958 ft | 411 kts | 82° |
| 2026-05-05 18:18 | 51.81320 | 0.66279 | 15468 ft | 413 kts | 77° |
| 2026-05-05 18:18 | 51.81993 | 0.70804 | 16210 ft | 416 kts | 76° |
| 2026-05-05 18:19 | 51.82697 | 0.75376 | 16876 ft | 420 kts | 76° |
| 2026-05-05 18:19 | 51.83410 | 0.79989 | 17472 ft | 424 kts | 76° |
| 2026-05-05 18:19 | 51.84203 | 0.84606 | 18062 ft | 428 kts | 73° |
| 2026-05-05 18:19 | 51.85048 | 0.89239 | 18612 ft | 432 kts | 73° |
| 2026-05-05 18:20 | 51.85904 | 0.93919 | 19148 ft | 434 kts | 73° |
| 2026-05-05 18:20 | 51.86764 | 0.98623 | 19636 ft | 438 kts | 73° |
| 2026-05-05 18:20 | 51.87630 | 1.03366 | 20114 ft | 441 kts | 73° |
| 2026-05-05 18:20 | 51.88500 | 1.08133 | 20558 ft | 444 kts | 73° |
| 2026-05-05 18:21 | 51.89379 | 1.12950 | 20987 ft | 446 kts | 73° |
| 2026-05-05 18:21 | 51.90259 | 1.17786 | 21357 ft | 449 kts | 73° |
| 2026-05-05 18:21 | 51.91145 | 1.22659 | 21795 ft | 450 kts | 73° |
| 2026-05-05 18:21 | 51.92035 | 1.27562 | 22151 ft | 453 kts | 73° |
| 2026-05-05 18:22 | 51.92919 | 1.32439 | 22503 ft | 456 kts | 73° |
| 2026-05-05 18:22 | 51.93818 | 1.37415 | 22802 ft | 451 kts | 73° |
| 2026-05-05 18:22 | 51.94688 | 1.42244 | 22896 ft | 445 kts | 73° |
| 2026-05-05 18:22 | 51.95543 | 1.47006 | 22922 ft | 444 kts | 73° |
| 2026-05-05 18:23 | 51.96403 | 1.51808 | 22929 ft | 444 kts | 73° |
| 2026-05-05 18:23 | 51.97264 | 1.56631 | 22930 ft | 443 kts | 73° |
| 2026-05-05 18:23 | 51.98119 | 1.61435 | 22931 ft | 443 kts | 73° |
| 2026-05-05 18:23 | 51.98975 | 1.66251 | 22931 ft | 443 kts | 73° |
| 2026-05-05 18:24 | 51.99764 | 1.71099 | 22931 ft | 443 kts | 76° |
| 2026-05-05 18:24 | 52.00500 | 1.75923 | 22930 ft | 444 kts | 76° |
| 2026-05-05 18:24 | 52.01241 | 1.80784 | 22930 ft | 444 kts | 76° |
| 2026-05-05 18:24 | 52.01986 | 1.85664 | 22938 ft | 443 kts | 76° |
| 2026-05-05 18:25 | 52.02733 | 1.90539 | 22946 ft | 443 kts | 76° |
| 2026-05-05 18:25 | 52.03224 | 1.93744 | 22948 ft | 443 kts | 76° |
| 2026-05-05 18:25 | 52.04225 | 2.00271 | 22770 ft | 447 kts | 76° |
| 2026-05-05 18:25 | 52.04985 | 2.05213 | 22521 ft | 455 kts | 76° |
| 2026-05-05 18:26 | 52.05751 | 2.10194 | 22271 ft | 454 kts | 76° |
| 2026-05-05 18:26 | 52.06517 | 2.15178 | 22020 ft | 453 kts | 76° |
| 2026-05-05 18:26 | 52.07279 | 2.20137 | 21769 ft | 452 kts | 76° |
| 2026-05-05 18:26 | 52.08029 | 2.25029 | 21522 ft | 450 kts | 76° |
| 2026-05-05 18:27 | 52.08791 | 2.30009 | 21269 ft | 449 kts | 76° |
| 2026-05-05 18:27 | 52.09543 | 2.34935 | 21018 ft | 447 kts | 76° |
| 2026-05-05 18:27 | 52.10295 | 2.39855 | 20766 ft | 447 kts | 75° |
| 2026-05-05 18:27 | 52.11174 | 2.44704 | 20515 ft | 445 kts | 71° |
| 2026-05-05 18:28 | 52.13650 | 2.53886 | 20045 ft | 443 kts | 61° |
| 2026-05-05 18:28 | 52.15149 | 2.58188 | 19953 ft | 428 kts | 60° |
| 2026-05-05 18:28 | 52.16608 | 2.62343 | 19508 ft | 418 kts | 60° |
| 2026-05-05 18:29 | 52.18035 | 2.66407 | 19110 ft | 408 kts | 60° |
| 2026-05-05 18:29 | 52.19432 | 2.70374 | 18754 ft | 399 kts | 60° |
| 2026-05-05 18:29 | 52.20793 | 2.74230 | 18356 ft | 386 kts | 60° |
| 2026-05-05 18:29 | 52.22105 | 2.77941 | 17776 ft | 376 kts | 60° |
| 2026-05-05 18:30 | 52.23415 | 2.81636 | 17243 ft | 366 kts | 60° |
| 2026-05-05 18:30 | 52.24663 | 2.85148 | 16749 ft | 357 kts | 60° |
| 2026-05-05 18:30 | 52.25898 | 2.88621 | 16132 ft | 352 kts | 59° |
| 2026-05-05 18:30 | 52.27128 | 2.92071 | 15492 ft | 348 kts | 59° |
| 2026-05-05 18:31 | 52.28341 | 2.95477 | 14857 ft | 345 kts | 59° |
| 2026-05-05 18:31 | 52.29544 | 2.98849 | 14252 ft | 341 kts | 59° |
| 2026-05-05 18:31 | 52.30731 | 3.02180 | 13613 ft | 338 kts | 59° |
| 2026-05-05 18:31 | 52.31918 | 3.05514 | 12988 ft | 334 kts | 59° |
| 2026-05-05 18:32 | 52.33051 | 3.08700 | 12563 ft | 325 kts | 59° |
| 2026-05-05 18:32 | 52.34185 | 3.11892 | 12130 ft | 316 kts | 59° |
| 2026-05-05 18:32 | 52.35269 | 3.14949 | 11705 ft | 307 kts | 59° |
| 2026-05-05 18:32 | 52.36331 | 3.17944 | 11276 ft | 300 kts | 59° |
| 2026-05-05 18:33 | 52.37359 | 3.20853 | 10881 ft | 293 kts | 59° |
| 2026-05-05 18:33 | 52.38356 | 3.23675 | 10621 ft | 288 kts | 59° |
| 2026-05-05 18:33 | 52.39358 | 3.26512 | 10289 ft | 285 kts | 59° |
| 2026-05-05 18:33 | 52.40346 | 3.29312 | 9926 ft | 283 kts | 59° |
| 2026-05-05 18:34 | 52.41323 | 3.32085 | 9550 ft | 281 kts | 59° |
| 2026-05-05 18:34 | 52.42295 | 3.34846 | 9175 ft | 279 kts | 59° |
| 2026-05-05 18:34 | 52.43207 | 3.37638 | 8801 ft | 276 kts | 62° |
| 2026-05-05 18:34 | 52.44013 | 3.40486 | 8430 ft | 274 kts | 65° |
| 2026-05-05 18:35 | 52.44713 | 3.43378 | 8022 ft | 272 kts | 69° |
| 2026-05-05 18:35 | 52.45303 | 3.46318 | 7632 ft | 270 kts | 72° |
| 2026-05-05 18:35 | 52.45779 | 3.49288 | 7233 ft | 267 kts | 75° |
| 2026-05-05 18:35 | 52.46219 | 3.52228 | 7010 ft | 265 kts | 75° |
| 2026-05-05 18:36 | 52.46656 | 3.55174 | 6953 ft | 266 kts | 75° |
| 2026-05-05 18:36 | 52.47082 | 3.58090 | 6938 ft | 267 kts | 75° |
| 2026-05-05 18:36 | 52.47512 | 3.61050 | 6933 ft | 267 kts | 75° |
| 2026-05-05 18:36 | 52.47637 | 3.64084 | 6924 ft | 270 kts | 97° |
| 2026-05-05 18:37 | 52.46949 | 3.66952 | 6939 ft | 274 kts | 117° |
| 2026-05-05 18:37 | 52.45930 | 3.69596 | 6935 ft | 275 kts | 121° |
| 2026-05-05 18:37 | 52.44862 | 3.72230 | 6931 ft | 275 kts | 121° |
| 2026-05-05 18:37 | 52.43794 | 3.74851 | 6930 ft | 275 kts | 121° |
| 2026-05-05 18:38 | 52.42732 | 3.77456 | 6929 ft | 275 kts | 121° |
| 2026-05-05 18:38 | 52.41671 | 3.80057 | 6928 ft | 275 kts | 121° |
| 2026-05-05 18:38 | 52.40610 | 3.82655 | 6927 ft | 275 kts | 121° |
| 2026-05-05 18:38 | 52.39547 | 3.85257 | 6910 ft | 273 kts | 121° |
| 2026-05-05 18:39 | 52.38492 | 3.87830 | 6474 ft | 272 kts | 121° |
| 2026-05-05 18:39 | 52.37442 | 3.90376 | 6062 ft | 270 kts | 121° |
| 2026-05-05 18:39 | 52.36413 | 3.92887 | 5651 ft | 267 kts | 119° |
| 2026-05-05 18:39 | 52.35382 | 3.95463 | 5232 ft | 265 kts | 121° |
| 2026-05-05 18:40 | 52.34339 | 3.97944 | 4812 ft | 264 kts | 121° |
| 2026-05-05 18:40 | 52.33302 | 4.00370 | 4547 ft | 256 kts | 121° |
| 2026-05-05 18:40 | 52.32386 | 4.02766 | 4437 ft | 239 kts | 114° |
| 2026-05-05 18:40 | 52.31643 | 4.05248 | 4419 ft | 245 kts | 111° |
| 2026-05-05 18:41 | 52.30909 | 4.07762 | 4408 ft | 245 kts | 111° |
| 2026-05-05 18:41 | 52.30187 | 4.10241 | 4404 ft | 245 kts | 111° |
| 2026-05-05 18:41 | 52.29456 | 4.12747 | 4403 ft | 245 kts | 111° |
| 2026-05-05 18:41 | 52.28722 | 4.15260 | 4291 ft | 241 kts | 111° |
| 2026-05-05 18:42 | 52.27993 | 4.17742 | 3887 ft | 241 kts | 111° |
| 2026-05-05 18:42 | 52.27284 | 4.20211 | 3501 ft | 238 kts | 107° |
| 2026-05-05 18:42 | 52.26778 | 4.22773 | 3125 ft | 235 kts | 102° |
| 2026-05-05 18:42 | 52.26328 | 4.25320 | 2955 ft | 234 kts | 102° |
| 2026-05-05 18:43 | 52.25877 | 4.27877 | 2912 ft | 234 kts | 102° |
| 2026-05-05 18:43 | 52.25425 | 4.30438 | 2900 ft | 235 kts | 102° |
| 2026-05-05 18:43 | 52.24972 | 4.33000 | 2897 ft | 235 kts | 102° |
| 2026-05-05 18:43 | 52.24523 | 4.35532 | 2761 ft | 227 kts | 102° |
| 2026-05-05 18:44 | 52.24087 | 4.37976 | 2499 ft | 221 kts | 102° |
| 2026-05-05 18:44 | 52.23804 | 4.39560 | 2296 ft | 219 kts | 102° |
| 2026-05-05 18:44 | 52.23382 | 4.41937 | 2072 ft | 217 kts | 102° |
| 2026-05-05 18:44 | 52.22965 | 4.44312 | 2018 ft | 217 kts | 102° |
| 2026-05-05 18:45 | 52.22416 | 4.47464 | 2002 ft | 218 kts | 102° |
| 2026-05-05 18:45 | 52.22182 | 4.49030 | 1984 ft | 209 kts | 95° |
| 2026-05-05 18:45 | 52.22059 | 4.51344 | 1995 ft | 202 kts | 89° |
| 2026-05-05 18:45 | 52.22116 | 4.53621 | 2003 ft | 200 kts | 81° |
| 2026-05-05 18:46 | 52.22413 | 4.55788 | 2010 ft | 186 kts | 69° |
| 2026-05-05 18:46 | 52.22896 | 4.57658 | 2022 ft | 173 kts | 63° |
| 2026-05-05 18:46 | 52.23457 | 4.59379 | 1999 ft | 172 kts | 59° |
| 2026-05-05 18:46 | 52.24063 | 4.61057 | 1775 ft | 170 kts | 57° |
| 2026-05-05 18:47 | 52.24671 | 4.62679 | 1543 ft | 163 kts | 56° |
| 2026-05-05 18:47 | 52.25236 | 4.64169 | 1335 ft | 146 kts | 56° |
| 2026-05-05 18:47 | 52.25753 | 4.65518 | 1137 ft | 136 kts | 56° |
| 2026-05-05 18:47 | 52.26245 | 4.66804 | 968 ft | 135 kts | 54° |
| 2026-05-05 18:48 | 52.26739 | 4.68075 | 795 ft | 126 kts | 56° |
| 2026-05-05 18:48 | 52.27212 | 4.69318 | 602 ft | 131 kts | 57° |
| 2026-05-05 18:48 | 52.27685 | 4.70569 | 459 ft | 128 kts | 56° |
| 2026-05-05 18:48 | 52.28178 | 4.71837 | 282 ft | 130 kts | 58° |
| 2026-05-05 18:49 | 52.28648 | 4.73048 | 122 ft | 127 kts | 57° |
| 2026-05-05 18:49 | 52.29118 | 4.74266 | 6 ft | 123 kts | 58° |
| 2026-05-05 18:49 | 52.29485 | 4.75230 | 4 ft | 75 kts | 58° |
| 2026-05-05 18:49 | 52.29660 | 4.75678 | 4 ft | 27 kts | 56° |
| 2026-05-05 18:50 | 52.29792 | 4.75829 | 4 ft | 20 kts | 22° |
| 2026-05-05 18:50 | 52.29864 | 4.75879 | 4 ft | 5 kts | 23° |
| 2026-05-05 18:50 | 52.29891 | 4.75897 | 4 ft | 4 kts | 21° |
| 2026-05-05 18:50 | 52.29913 | 4.75912 | 4 ft | 3 kts | 26° |
| 2026-05-05 18:51 | 52.29929 | 4.75924 | 4 ft | 2 kts | 26° |
| 2026-05-05 18:51 | 52.29930 | 4.75926 | 4 ft | 0 kts | 25° |
| 2026-05-05 18:52 | 52.29981 | 4.75969 | 4 ft | 16 kts | 35° |
| 2026-05-05 18:52 | 52.30043 | 4.76117 | 4 ft | 16 kts | 59° |
| 2026-05-05 18:52 | 52.30101 | 4.76264 | 4 ft | 15 kts | 58° |
| 2026-05-05 18:52 | 52.30155 | 4.76403 | 4 ft | 14 kts | 58° |
| 2026-05-05 18:53 | 52.30205 | 4.76536 | 4 ft | 13 kts | 59° |
| 2026-05-05 18:53 | 52.30252 | 4.76662 | 4 ft | 13 kts | 58° |
| 2026-05-05 18:53 | 52.30298 | 4.76786 | 4 ft | 14 kts | 58° |
| 2026-05-05 18:53 | 52.30350 | 4.76926 | 4 ft | 14 kts | 58° |
| 2026-05-05 18:54 | 52.30402 | 4.77063 | 4 ft | 14 kts | 58° |
| 2026-05-05 18:54 | 52.30467 | 4.77172 | 4 ft | 14 kts | 345° |
| 2026-05-05 18:54 | 52.30547 | 4.77091 | 4 ft | 13 kts | 326° |
| 2026-05-05 18:54 | 52.30622 | 4.77016 | 4 ft | 12 kts | 348° |
| 2026-05-05 18:55 | 52.30663 | 4.77066 | 4 ft | 7 kts | 69° |
| 2026-05-05 18:55 | 52.30703 | 4.77085 | 4 ft | 4 kts | 1° |
| 2026-05-05 18:55 | 52.30705 | 4.77085 | 4 ft | 0 kts | 0° |